createdAt,value
2018-12-19T00:02:48.373Z,9.11
2018-12-19T00:05:22.176Z,9.12
2018-12-19T00:07:55.991Z,9.06
2018-12-19T00:10:30.049Z,9.09
2018-12-19T00:13:03.896Z,9.09
2018-12-19T00:15:38.074Z,9.11
2018-12-19T00:18:12.552Z,9.08
2018-12-19T00:20:46.355Z,8.93
2018-12-19T00:23:20.237Z,8.89
2018-12-19T00:25:54.079Z,8.84
2018-12-19T00:28:27.810Z,8.80
2018-12-19T00:31:02.311Z,8.78
2018-12-19T00:33:36.180Z,8.84
2018-12-19T00:36:10.037Z,8.80
2018-12-19T00:38:43.820Z,8.80
2018-12-19T00:43:59.281Z,8.75
2018-12-19T00:46:33.121Z,8.74
2018-12-19T00:49:06.929Z,8.79
2018-12-19T00:51:40.689Z,8.78
2018-12-19T00:54:14.558Z,8.83
2018-12-19T00:56:49.090Z,8.93
2018-12-19T00:59:22.848Z,8.92
2018-12-19T01:01:56.623Z,8.94
2018-12-19T01:04:30.725Z,8.99
2018-12-19T01:07:05.272Z,9.06
2018-12-19T01:09:39.039Z,9.02
2018-12-19T01:12:12.768Z,9.09
2018-12-19T01:14:46.591Z,9.18
2018-12-19T01:17:20.380Z,9.24
2018-12-19T01:19:54.893Z,9.23
2018-12-19T01:22:29.687Z,9.11
2018-12-19T01:25:03.633Z,9.00
2018-12-19T01:27:37.658Z,8.99
2018-12-19T01:30:11.465Z,8.95
2018-12-19T01:32:45.550Z,8.84
2018-12-19T01:35:19.302Z,8.90
2018-12-19T01:37:53.065Z,8.79
2018-12-19T01:40:27.553Z,8.78
2018-12-19T01:43:01.294Z,8.76
2018-12-19T01:45:36.115Z,8.70
2018-12-19T01:48:09.929Z,8.62
2018-12-19T01:50:43.748Z,8.60
2018-12-19T01:53:18.235Z,8.50
2018-12-19T01:55:52.784Z,8.44
2018-12-19T01:58:27.279Z,8.44
2018-12-19T02:01:01.721Z,8.47
2018-12-19T02:03:35.753Z,8.40
2018-12-19T02:06:10.272Z,8.44
2018-12-19T02:08:44.813Z,8.46
2018-12-19T02:11:18.597Z,8.55
2018-12-19T02:13:53.396Z,8.47
2018-12-19T02:16:27.129Z,8.51
2018-12-19T02:19:01.589Z,8.61
2018-12-19T02:21:35.295Z,8.66
2018-12-19T02:24:09.112Z,8.65
2018-12-19T02:26:42.918Z,8.68
2018-12-19T02:29:17.058Z,8.64
2018-12-19T02:31:50.885Z,8.65
2018-12-19T02:34:24.736Z,8.77
2018-12-19T02:36:58.484Z,8.67
2018-12-19T02:39:36.144Z,8.84
2018-12-19T02:42:06.133Z,8.93
2018-12-19T02:44:40.254Z,8.95
2018-12-19T02:47:14.045Z,8.82
2018-12-19T02:49:48.601Z,8.68
2018-12-19T02:52:22.395Z,8.74
2018-12-19T02:54:56.146Z,8.76
2018-12-19T02:57:29.923Z,8.83
2018-12-19T03:00:03.661Z,8.73
2018-12-19T03:02:37.502Z,8.71
2018-12-19T03:05:11.297Z,8.70
2018-12-19T03:07:45.868Z,8.84
2018-12-19T03:10:20.201Z,8.84
2018-12-19T03:12:54.065Z,8.92
2018-12-19T03:15:28.137Z,9.02
2018-12-19T03:18:02.203Z,9.02
2018-12-19T03:20:35.980Z,9.05
2018-12-19T03:23:10.542Z,9.21
2018-12-19T03:25:44.284Z,9.23
2018-12-19T03:28:18.039Z,9.36
2018-12-19T03:30:53.327Z,9.16
2018-12-19T03:33:26.549Z,8.94
2018-12-19T03:36:01.047Z,8.80
2018-12-19T03:38:34.907Z,8.73
2018-12-19T03:41:08.713Z,8.68
2018-12-19T03:43:42.469Z,8.75
2018-12-19T03:46:16.979Z,8.57
2018-12-19T03:48:56.916Z,8.52
2018-12-19T03:51:30.829Z,8.39
2018-12-19T03:54:04.689Z,8.47
2018-12-19T03:56:39.533Z,8.51
2018-12-19T03:59:13.315Z,8.55
2018-12-19T04:01:47.109Z,8.64
2018-12-19T04:04:21.646Z,8.75
2018-12-19T04:06:56.113Z,8.75
2018-12-19T04:09:29.897Z,8.68
2018-12-19T04:12:03.614Z,8.68
2018-12-19T04:14:37.501Z,8.91
2018-12-19T04:17:11.161Z,8.94
2018-12-19T04:19:44.910Z,8.89
2018-12-19T04:22:18.729Z,8.84
2018-12-19T04:24:52.795Z,8.89
2018-12-19T04:30:08.185Z,8.90
2018-12-19T04:32:41.988Z,8.95
2018-12-19T04:37:55.288Z,8.96
2018-12-19T04:40:29.334Z,9.05
2018-12-19T04:43:03.127Z,9.04
2018-12-19T04:45:36.923Z,9.19
2018-12-19T04:48:10.649Z,9.15
2018-12-19T04:50:44.431Z,9.18
2018-12-19T04:53:18.204Z,9.23
2018-12-19T04:55:52.717Z,9.13
2018-12-19T04:58:27.209Z,9.10
2018-12-19T05:01:01.234Z,8.87
2018-12-19T05:03:35.786Z,8.89
2018-12-19T05:06:10.550Z,8.91
2018-12-19T05:08:44.336Z,8.73
2018-12-19T05:11:18.118Z,8.57
2018-12-19T05:13:52.649Z,8.53
2018-12-19T05:16:27.230Z,8.55
2018-12-19T05:19:00.970Z,8.58
2018-12-19T05:21:35.587Z,8.57
2018-12-19T05:24:09.353Z,8.45
2018-12-19T05:26:43.181Z,8.50
2018-12-19T05:29:16.932Z,8.38
2018-12-19T05:31:51.512Z,8.41
2018-12-19T05:34:25.293Z,8.46
2018-12-19T05:36:59.887Z,8.45
2018-12-19T05:39:33.673Z,8.47
2018-12-19T05:42:08.503Z,8.34
2018-12-19T05:44:43.040Z,8.34
2018-12-19T05:47:17.497Z,8.39
2018-12-19T05:49:51.352Z,8.43
2018-12-19T05:52:26.235Z,8.44
2018-12-19T05:55:00.004Z,8.41
2018-12-19T05:57:33.734Z,8.30
2018-12-19T06:00:08.516Z,8.31
2018-12-19T06:02:42.349Z,8.34
2018-12-19T06:05:16.175Z,8.46
2018-12-19T06:07:49.933Z,8.40
2018-12-19T06:10:26.327Z,8.41
2018-12-19T06:12:57.753Z,8.35
2018-12-19T06:15:31.479Z,8.41
2018-12-19T06:18:05.939Z,8.28
2018-12-19T06:20:39.733Z,8.19
2018-12-19T06:23:13.536Z,8.23
2018-12-19T06:25:47.288Z,8.25
2018-12-19T06:31:02.780Z,8.47
2018-12-19T06:33:36.602Z,8.49
2018-12-19T06:36:10.776Z,8.48
2018-12-19T06:38:44.526Z,8.42
2018-12-19T06:41:19.755Z,8.49
2018-12-19T06:43:53.573Z,8.64
2018-12-19T06:46:27.341Z,8.44
2018-12-19T06:49:01.414Z,8.50
2018-12-19T06:51:35.200Z,8.49
2018-12-19T06:54:08.939Z,8.54
2018-12-19T06:56:42.652Z,8.49
2018-12-19T06:59:17.154Z,8.50
2018-12-19T07:01:50.972Z,8.56
2018-12-19T07:04:24.753Z,8.51
2018-12-19T07:06:58.562Z,8.52
2018-12-19T07:09:33.182Z,8.55
2018-12-19T07:12:07.689Z,8.64
2018-12-19T07:14:42.287Z,8.66
2018-12-19T07:17:16.093Z,8.68
2018-12-19T07:19:49.940Z,8.67
2018-12-19T07:22:24.421Z,8.69
2018-12-19T07:24:58.239Z,8.76
2018-12-19T07:27:32.005Z,8.78
2018-12-19T07:30:06.000Z,8.67
2018-12-19T07:32:40.824Z,8.67
2018-12-19T07:35:15.376Z,8.69
2018-12-19T07:37:49.157Z,8.82
2018-12-19T07:40:23.601Z,8.83
2018-12-19T07:42:57.393Z,8.91
2018-12-19T07:45:31.159Z,8.79
2018-12-19T07:48:04.936Z,8.78
2018-12-19T07:50:38.674Z,8.80
2018-12-19T07:53:12.443Z,8.85
2018-12-19T07:55:46.256Z,8.87
2018-12-19T07:58:20.059Z,8.83
2018-12-19T08:00:53.841Z,8.90
2018-12-19T08:03:27.582Z,8.97
2018-12-19T08:06:01.411Z,8.83
2018-12-19T08:08:35.257Z,8.87
2018-12-19T08:11:09.013Z,8.86
2018-12-19T08:13:42.837Z,9.00
2018-12-19T08:16:16.665Z,9.18
2018-12-19T08:18:50.442Z,9.03
2018-12-19T08:21:24.175Z,9.08
2018-12-19T08:23:57.961Z,9.04
2018-12-19T08:26:32.540Z,9.20
2018-12-19T08:29:06.346Z,9.17
2018-12-19T08:31:40.132Z,9.18
2018-12-19T08:34:13.901Z,9.36
2018-12-19T08:36:48.695Z,9.33
2018-12-19T08:39:22.563Z,9.25
2018-12-19T08:41:56.296Z,9.23
2018-12-19T08:44:30.215Z,9.26
2018-12-19T08:52:25.494Z,9.29
2018-12-19T08:57:38.709Z,9.48
2018-12-19T09:00:14.364Z,9.67
2018-12-19T09:02:48.491Z,9.71
2018-12-19T09:08:04.389Z,9.89
2018-12-19T09:13:20.318Z,9.95
2018-12-19T09:21:20.056Z,10.16
2018-12-19T09:23:53.845Z,10.21
2018-12-19T09:26:27.805Z,10.15
2018-12-19T09:31:41.906Z,10.28
2018-12-19T09:34:16.357Z,10.21
2018-12-19T09:36:50.214Z,10.26
2018-12-19T09:39:23.989Z,10.28
2018-12-19T09:44:44.359Z,10.36
2018-12-19T09:47:18.461Z,10.41
2018-12-19T09:49:52.269Z,10.54
2018-12-19T09:52:26.025Z,10.57
2018-12-19T09:55:00.476Z,10.57
2018-12-19T09:57:34.283Z,10.80
2018-12-19T10:00:27.975Z,11.02
2018-12-19T10:03:01.781Z,11.00
2018-12-19T10:05:35.894Z,10.86
2018-12-19T10:08:09.652Z,11.02
2018-12-19T10:10:43.564Z,10.99
2018-12-19T10:13:18.079Z,11.02
2018-12-19T10:15:53.322Z,10.93
2018-12-19T10:18:27.408Z,10.87
2018-12-19T10:21:01.165Z,10.78
2018-12-19T10:23:35.005Z,10.78
2018-12-19T10:26:15.170Z,10.84
2018-12-19T10:28:48.957Z,10.85
2018-12-19T10:36:44.354Z,10.94
2018-12-19T10:39:18.908Z,10.93
2018-12-19T10:41:52.685Z,10.92
2018-12-19T10:47:15.961Z,11.03
2018-12-19T10:49:50.533Z,10.94
2018-12-19T10:52:24.353Z,11.00
2018-12-19T10:54:59.135Z,10.97
2018-12-19T10:57:33.913Z,10.97
2018-12-19T11:03:36.214Z,10.95
2018-12-19T11:06:09.982Z,11.19
2018-12-19T11:08:43.801Z,11.25
2018-12-19T11:11:17.604Z,11.20
2018-12-19T11:13:51.341Z,11.18
2018-12-19T11:16:25.855Z,11.41
2018-12-19T11:19:00.482Z,11.42
2018-12-19T11:21:34.650Z,11.69
2018-12-19T11:24:09.127Z,11.99
2018-12-19T11:26:42.905Z,12.17
2018-12-19T11:29:16.944Z,12.11
2018-12-19T11:31:50.702Z,12.08
2018-12-19T11:34:24.509Z,12.07
2018-12-19T11:36:58.259Z,12.38
2018-12-19T11:39:32.040Z,12.52
2018-12-19T11:44:47.380Z,13.80
2018-12-19T11:47:21.184Z,14.29
2018-12-19T11:49:55.035Z,14.18
2018-12-19T11:52:28.818Z,14.30
2018-12-19T11:55:03.369Z,13.98
2018-12-19T11:57:37.227Z,13.51
2018-12-19T12:00:12.067Z,13.74
2018-12-19T12:02:46.125Z,13.94
2018-12-19T12:05:19.895Z,13.90
2018-12-19T12:07:54.365Z,13.86
2018-12-19T12:10:28.136Z,13.84
2018-12-19T12:13:01.921Z,13.84
2018-12-19T12:15:36.487Z,13.95
2018-12-19T12:18:10.237Z,14.48
2018-12-19T12:20:44.182Z,14.51
2018-12-19T12:23:18.744Z,14.37
2018-12-19T12:25:52.528Z,14.02
2018-12-19T12:28:26.308Z,13.99
2018-12-19T12:31:00.816Z,13.87
2018-12-19T12:33:34.629Z,13.64
2018-12-19T12:36:09.088Z,14.02
2018-12-19T12:38:43.318Z,14.53
2018-12-19T12:43:56.608Z,15.48
2018-12-19T12:46:30.342Z,16.38
2018-12-19T12:51:45.545Z,17.30
2018-12-19T12:54:19.296Z,16.98
2018-12-19T12:56:53.200Z,16.54
2018-12-19T12:59:27.015Z,16.01
2018-12-19T13:02:02.233Z,15.76
2018-12-19T13:09:55.589Z,15.02
2018-12-19T13:12:29.363Z,14.88
2018-12-19T13:15:04.666Z,14.92
2018-12-19T13:17:38.436Z,14.57
2018-12-19T13:20:12.895Z,14.20
2018-12-19T13:22:46.707Z,13.94
2018-12-19T13:25:20.496Z,13.60
2018-12-19T13:27:54.316Z,13.44
2018-12-19T13:30:28.361Z,13.40
2018-12-19T13:35:45.557Z,13.33
2018-12-19T13:38:19.320Z,13.20
2018-12-19T13:46:17.434Z,13.29
2018-12-19T13:48:52.127Z,13.76
2018-12-19T13:51:25.926Z,13.93
2018-12-19T13:53:59.704Z,13.92
2018-12-19T13:56:33.737Z,13.93
2018-12-19T14:01:50.473Z,13.95
2018-12-19T14:04:24.201Z,13.98
2018-12-19T14:06:58.751Z,13.93
2018-12-19T14:09:32.556Z,13.76
2018-12-19T14:12:12.124Z,13.65
2018-12-19T14:14:40.189Z,13.44
2018-12-19T14:17:14.020Z,13.41
2018-12-19T14:19:47.821Z,13.28
2018-12-19T14:22:21.596Z,13.32
2018-12-19T14:24:55.336Z,13.07
2018-12-19T14:27:29.278Z,13.03
2018-12-19T14:32:43.368Z,13.12
2018-12-19T14:35:17.876Z,13.18
2018-12-19T14:40:32.231Z,13.04
2018-12-19T14:43:05.950Z,12.95
2018-12-19T14:48:20.010Z,12.94
2018-12-19T14:50:54.495Z,12.94
2018-12-19T14:53:28.606Z,12.87
2018-12-19T14:56:02.372Z,12.84
2018-12-19T14:58:36.353Z,12.76
2018-12-19T15:01:10.149Z,12.67
2018-12-19T15:03:43.953Z,12.61
2018-12-19T15:06:18.485Z,12.66
2018-12-19T15:08:52.244Z,12.68
2018-12-19T15:11:27.035Z,12.66
2018-12-19T15:13:59.705Z,12.55
2018-12-19T15:16:33.473Z,12.51
2018-12-19T15:19:07.333Z,12.54
2018-12-19T15:21:41.113Z,12.37
2018-12-19T15:24:14.933Z,12.17
2018-12-19T15:26:48.776Z,12.00
2018-12-19T15:29:22.564Z,11.95
2018-12-19T15:31:56.703Z,11.91
2018-12-19T15:34:30.520Z,11.82
2018-12-19T15:37:04.399Z,11.72
2018-12-19T15:39:38.125Z,11.75
2018-12-19T15:42:11.915Z,11.62
2018-12-19T15:44:45.686Z,11.62
2018-12-19T15:47:19.490Z,11.61
2018-12-19T15:49:53.245Z,11.62
2018-12-19T15:52:27.079Z,11.56
2018-12-19T15:55:00.845Z,11.61
2018-12-19T15:57:34.593Z,11.57
2018-12-19T16:02:57.726Z,11.59
2018-12-19T16:05:31.830Z,11.61
2018-12-19T16:08:05.660Z,11.78
2018-12-19T16:10:39.724Z,11.80
2018-12-19T16:13:14.234Z,12.06
2018-12-19T16:15:48.058Z,12.03
2018-12-19T16:18:21.869Z,12.02
2018-12-19T16:20:56.407Z,12.01
2018-12-19T16:23:30.969Z,12.06
2018-12-19T16:26:04.683Z,12.18
2018-12-19T16:28:38.417Z,12.10
2018-12-19T16:31:12.185Z,11.99
2018-12-19T16:33:46.020Z,12.15
2018-12-19T16:36:19.748Z,12.24
2018-12-19T16:38:53.565Z,12.29
2018-12-19T16:44:13.967Z,12.37
2018-12-19T16:46:48.797Z,12.38
2018-12-19T16:49:23.340Z,12.38
2018-12-19T16:51:57.105Z,12.50
2018-12-19T16:54:30.915Z,12.37
2018-12-19T16:59:44.590Z,12.38
2018-12-19T17:05:00.517Z,12.50
2018-12-19T17:10:14.530Z,12.56
2018-12-19T17:12:52.703Z,12.46
2018-12-19T17:15:22.413Z,12.31
2018-12-19T17:17:56.238Z,12.38
2018-12-19T17:23:10.253Z,12.43
2018-12-19T17:25:44.726Z,12.35
2018-12-19T17:28:18.903Z,12.24
2018-12-19T17:30:52.672Z,12.34
2018-12-19T17:33:26.409Z,12.32
2018-12-19T17:36:00.208Z,12.46
2018-12-19T17:41:14.969Z,12.47
2018-12-19T17:43:48.788Z,12.23
2018-12-19T17:49:03.202Z,12.33
2018-12-19T17:51:36.915Z,12.38
2018-12-19T17:54:11.095Z,12.35
2018-12-19T17:59:28.937Z,12.18
2018-12-19T18:02:03.773Z,12.00
2018-12-19T18:04:38.642Z,11.90
2018-12-19T18:07:12.429Z,11.88
2018-12-19T18:12:34.569Z,11.74
2018-12-19T18:17:48.575Z,11.84
2018-12-19T18:20:22.637Z,11.70
2018-12-19T18:22:57.182Z,11.59
2018-12-19T18:25:30.994Z,11.69
2018-12-19T18:30:46.149Z,11.64
2018-12-19T18:33:20.628Z,11.63
2018-12-19T18:35:55.070Z,11.54
2018-12-19T18:38:28.837Z,11.73
2018-12-19T18:41:02.944Z,11.76
2018-12-19T18:46:22.604Z,11.80
2018-12-19T18:48:56.676Z,11.78
2018-12-19T18:51:30.845Z,11.88
2018-12-19T18:56:47.063Z,11.61
2018-12-19T18:59:20.799Z,11.39
2018-12-19T19:01:54.606Z,11.40
2018-12-19T19:07:07.833Z,11.48
2018-12-19T19:09:41.619Z,11.45
2018-12-19T19:12:16.754Z,11.43
2018-12-19T19:17:31.217Z,11.35
2018-12-19T19:20:05.727Z,11.44
2018-12-19T19:22:40.566Z,11.32
2018-12-19T19:27:56.081Z,11.36
2018-12-19T19:30:30.551Z,11.42
2018-12-19T19:33:05.001Z,11.40
2018-12-19T19:35:39.546Z,11.22
2018-12-19T19:38:14.021Z,11.19
2018-12-19T19:43:29.561Z,11.29
2018-12-19T19:46:04.073Z,11.20
2018-12-19T19:48:38.334Z,11.34
2018-12-19T19:53:51.613Z,11.04
2018-12-19T19:59:04.894Z,10.85
2018-12-19T20:01:39.433Z,10.83
2018-12-19T20:04:13.553Z,10.91
2018-12-19T20:09:28.764Z,11.11
2018-12-19T20:12:02.586Z,11.10
2018-12-19T20:17:26.990Z,11.16
2018-12-19T20:20:01.585Z,11.11
2018-12-19T20:22:35.465Z,11.09
2018-12-19T20:25:10.016Z,11.17
2018-12-19T20:30:23.569Z,11.21
2018-12-19T20:32:57.617Z,11.25
2018-12-19T20:38:12.966Z,11.19
2018-12-19T20:40:47.027Z,11.07
2018-12-19T20:43:21.229Z,11.24
2018-12-19T20:48:37.185Z,11.24
2018-12-19T20:51:11.693Z,11.21
2018-12-19T20:56:27.645Z,11.05
2018-12-19T21:01:43.113Z,11.21
2018-12-19T21:06:57.180Z,11.13
2018-12-19T21:09:31.726Z,11.23
2018-12-19T21:12:05.550Z,11.21
2018-12-19T21:17:39.240Z,11.08
2018-12-19T21:20:13.733Z,10.86
2018-12-19T21:22:47.553Z,10.89
2018-12-19T21:28:01.144Z,10.95
2018-12-19T21:30:34.950Z,10.83
2018-12-19T21:33:13.954Z,10.80
2018-12-19T21:38:22.589Z,10.89
2018-12-19T21:40:56.238Z,11.06
2018-12-19T21:43:30.100Z,11.02
2018-12-19T21:48:47.337Z,11.01
2018-12-19T21:51:21.835Z,11.08
2018-12-19T21:53:55.628Z,11.09
2018-12-19T21:59:10.402Z,11.01
2018-12-19T22:01:44.156Z,11.06
2018-12-19T22:07:04.589Z,11.13
2018-12-19T22:09:38.351Z,11.05
2018-12-19T22:17:48.354Z,10.95
2018-12-19T22:23:02.531Z,10.78
2018-12-19T22:28:16.010Z,10.76
2018-12-19T22:30:50.070Z,10.72
2018-12-19T22:33:24.780Z,10.76
2018-12-19T22:38:40.068Z,10.71
2018-12-19T22:41:13.725Z,10.64
2018-12-19T22:46:29.425Z,10.89
2018-12-19T22:49:03.115Z,10.77
2018-12-19T22:51:38.055Z,10.80
2018-12-19T22:57:00.378Z,10.81
2018-12-19T22:59:35.007Z,10.91
2018-12-19T23:02:26.892Z,10.83
2018-12-19T23:07:40.148Z,10.85
2018-12-19T23:10:14.210Z,11.02
2018-12-19T23:12:48.036Z,11.10
2018-12-19T23:21:04.164Z,11.10
2018-12-19T23:23:56.580Z,10.98
2018-12-19T23:26:30.486Z,11.15
2018-12-19T23:29:04.541Z,11.13
2018-12-19T23:31:38.273Z,11.18
2018-12-19T23:34:12.180Z,11.09
2018-12-19T23:36:45.875Z,11.09
2018-12-19T23:39:19.641Z,11.08
2018-12-19T23:41:54.158Z,11.11
2018-12-19T23:44:33.819Z,11.11
2018-12-19T23:47:08.286Z,11.05
2018-12-19T23:52:23.741Z,11.00
2018-12-19T23:57:39.274Z,11.02
